sensor_id;sensor_type;location;lat;lon;timestamp;P1;durP1;ratioP1;P2;durP2;ratioP2
3369;SDS011;42042;51.948;7.628;2023-03-01T00:01:00;8.95;;;6.70;;
3369;SDS011;42042;51.948;7.628;2023-03-01T00:03:28;10.18;;;7.38;;
3369;SDS011;42042;51.948;7.628;2023-03-01T00:05:56;8.40;;;6.85;;
3369;SDS011;42042;51.948;7.628;2023-03-01T00:08:23;9.98;;;7.03;;
3369;SDS011;42042;51.948;7.628;2023-03-01T00:10:59;11.60;;;7.95;;
3369;SDS011;42042;51.948;7.628;2023-03-01T00:13:26;8.48;;;7.57;;
3369;SDS011;42042;51.948;7.628;2023-03-01T00:15:53;11.65;;;7.40;;
3369;SDS011;42042;51.948;7.628;2023-03-01T00:18:20;10.60;;;7.95;;
3369;SDS011;42042;51.948;7.628;2023-03-01T00:20:49;8.07;;;7.22;;
3369;SDS011;42042;51.948;7.628;2023-03-01T00:23:18;9.70;;;8.20;;
3369;SDS011;42042;51.948;7.628;2023-03-01T00:25:46;9.15;;;7.75;;
3369;SDS011;42042;51.948;7.628;2023-03-01T00:28:13;12.98;;;8.90;;
3369;SDS011;42042;51.948;7.628;2023-03-01T00:30:40;9.75;;;8.45;;
3369;SDS011;42042;51.948;7.628;2023-03-01T00:33:07;9.20;;;8.10;;
3369;SDS011;42042;51.948;7.628;2023-03-01T00:35:35;9.35;;;8.27;;
3369;SDS011;42042;51.948;7.628;2023-03-01T00:38:02;10.38;;;9.07;;
3369;SDS011;42042;51.948;7.628;2023-03-01T00:40:32;10.35;;;8.48;;
3369;SDS011;42042;51.948;7.628;2023-03-01T00:43:00;11.80;;;8.70;;
3369;SDS011;42042;51.948;7.628;2023-03-01T00:45:27;11.70;;;7.97;;
3369;SDS011;42042;51.948;7.628;2023-03-01T00:47:55;15.27;;;9.48;;
3369;SDS011;42042;51.948;7.628;2023-03-01T00:50:23;9.07;;;7.85;;
3369;SDS011;42042;51.948;7.628;2023-03-01T00:52:51;9.35;;;8.15;;
3369;SDS011;42042;51.948;7.628;2023-03-01T00:55:19;11.25;;;8.30;;
3369;SDS011;42042;51.948;7.628;2023-03-01T00:57:47;10.88;;;7.75;;
3369;SDS011;42042;51.948;7.628;2023-03-01T01:00:15;11.52;;;8.85;;
3369;SDS011;42042;51.948;7.628;2023-03-01T01:02:42;11.18;;;9.30;;
3369;SDS011;42042;51.948;7.628;2023-03-01T01:05:09;11.25;;;8.52;;
3369;SDS011;42042;51.948;7.628;2023-03-01T01:07:36;10.65;;;9.13;;
3369;SDS011;42042;51.948;7.628;2023-03-01T01:10:04;14.38;;;9.43;;
3369;SDS011;42042;51.948;7.628;2023-03-01T01:12:32;9.43;;;8.10;;
3369;SDS011;42042;51.948;7.628;2023-03-01T01:15:00;10.73;;;8.40;;
3369;SDS011;42042;51.948;7.628;2023-03-01T01:17:28;9.15;;;7.40;;
3369;SDS011;42042;51.948;7.628;2023-03-01T01:19:55;9.75;;;7.60;;
3369;SDS011;42042;51.948;7.628;2023-03-01T01:22:22;9.52;;;7.80;;
3369;SDS011;42042;51.948;7.628;2023-03-01T01:24:49;12.02;;;8.05;;
3369;SDS011;42042;51.948;7.628;2023-03-01T01:27:16;10.23;;;8.63;;
3369;SDS011;42042;51.948;7.628;2023-03-01T01:29:44;10.68;;;8.15;;
3369;SDS011;42042;51.948;7.628;2023-03-01T01:32:12;8.95;;;7.70;;
3369;SDS011;42042;51.948;7.628;2023-03-01T01:34:39;8.82;;;7.75;;
3369;SDS011;42042;51.948;7.628;2023-03-01T01:37:06;8.73;;;7.82;;
3369;SDS011;42042;51.948;7.628;2023-03-01T01:39:34;12.57;;;8.00;;
3369;SDS011;42042;51.948;7.628;2023-03-01T01:42:01;10.90;;;8.75;;
3369;SDS011;42042;51.948;7.628;2023-03-01T01:44:29;9.45;;;7.72;;
3369;SDS011;42042;51.948;7.628;2023-03-01T01:46:57;10.00;;;6.93;;
3369;SDS011;42042;51.948;7.628;2023-03-01T01:49:29;9.50;;;7.93;;
3369;SDS011;42042;51.948;7.628;2023-03-01T01:52:03;9.50;;;8.02;;
3369;SDS011;42042;51.948;7.628;2023-03-01T01:54:35;8.75;;;7.50;;
3369;SDS011;42042;51.948;7.628;2023-03-01T01:57:03;12.10;;;8.35;;
3369;SDS011;42042;51.948;7.628;2023-03-01T01:59:33;13.13;;;8.23;;
3369;SDS011;42042;51.948;7.628;2023-03-01T02:02:02;9.27;;;8.10;;
3369;SDS011;42042;51.948;7.628;2023-03-01T02:04:31;12.05;;;8.77;;
3369;SDS011;42042;51.948;7.628;2023-03-01T02:07:00;12.15;;;9.75;;
3369;SDS011;42042;51.948;7.628;2023-03-01T02:09:28;12.38;;;8.32;;
3369;SDS011;42042;51.948;7.628;2023-03-01T02:11:57;12.73;;;8.35;;
3369;SDS011;42042;51.948;7.628;2023-03-01T02:14:25;8.95;;;8.05;;
3369;SDS011;42042;51.948;7.628;2023-03-01T02:16:52;10.68;;;8.63;;
3369;SDS011;42042;51.948;7.628;2023-03-01T02:19:23;8.43;;;7.63;;
3369;SDS011;42042;51.948;7.628;2023-03-01T02:21:55;15.43;;;9.05;;
3369;SDS011;42042;51.948;7.628;2023-03-01T02:24:26;11.10;;;7.13;;
3369;SDS011;42042;51.948;7.628;2023-03-01T02:26:57;7.72;;;6.93;;
3369;SDS011;42042;51.948;7.628;2023-03-01T02:29:26;14.63;;;8.27;;
3369;SDS011;42042;51.948;7.628;2023-03-01T02:31:54;14.48;;;8.43;;
3369;SDS011;42042;51.948;7.628;2023-03-01T02:34:23;10.00;;;7.55;;
3369;SDS011;42042;51.948;7.628;2023-03-01T02:36:52;10.05;;;8.27;;
3369;SDS011;42042;51.948;7.628;2023-03-01T02:39:22;8.48;;;7.70;;
3369;SDS011;42042;51.948;7.628;2023-03-01T02:41:52;9.65;;;7.95;;
3369;SDS011;42042;51.948;7.628;2023-03-01T02:44:19;9.18;;;7.90;;
3369;SDS011;42042;51.948;7.628;2023-03-01T02:46:49;12.65;;;7.50;;
3369;SDS011;42042;51.948;7.628;2023-03-01T02:49:20;10.63;;;8.07;;
3369;SDS011;42042;51.948;7.628;2023-03-01T02:51:52;9.18;;;8.02;;
3369;SDS011;42042;51.948;7.628;2023-03-01T02:54:23;10.48;;;7.80;;
3369;SDS011;42042;51.948;7.628;2023-03-01T02:56:52;8.93;;;7.57;;
3369;SDS011;42042;51.948;7.628;2023-03-01T02:59:20;9.35;;;7.90;;
3369;SDS011;42042;51.948;7.628;2023-03-01T03:01:49;9.20;;;7.93;;
3369;SDS011;42042;51.948;7.628;2023-03-01T03:04:17;12.98;;;8.98;;
3369;SDS011;42042;51.948;7.628;2023-03-01T03:06:46;11.43;;;7.68;;
3369;SDS011;42042;51.948;7.628;2023-03-01T03:09:13;11.45;;;8.38;;
3369;SDS011;42042;51.948;7.628;2023-03-01T03:11:41;8.98;;;7.07;;
3369;SDS011;42042;51.948;7.628;2023-03-01T03:14:08;11.80;;;7.22;;
3369;SDS011;42042;51.948;7.628;2023-03-01T03:16:39;9.45;;;7.95;;
3369;SDS011;42042;51.948;7.628;2023-03-01T03:19:07;9.52;;;7.88;;
3369;SDS011;42042;51.948;7.628;2023-03-01T03:21:34;13.15;;;9.00;;
3369;SDS011;42042;51.948;7.628;2023-03-01T03:24:01;8.38;;;7.15;;
3369;SDS011;42042;51.948;7.628;2023-03-01T03:26:29;9.25;;;7.10;;
3369;SDS011;42042;51.948;7.628;2023-03-01T03:28:56;12.95;;;7.95;;
3369;SDS011;42042;51.948;7.628;2023-03-01T03:31:24;10.85;;;7.68;;
3369;SDS011;42042;51.948;7.628;2023-03-01T03:33:51;10.52;;;8.20;;
3369;SDS011;42042;51.948;7.628;2023-03-01T03:36:20;11.55;;;8.32;;
3369;SDS011;42042;51.948;7.628;2023-03-01T03:38:47;8.70;;;7.68;;
3369;SDS011;42042;51.948;7.628;2023-03-01T03:41:15;10.13;;;8.05;;
3369;SDS011;42042;51.948;7.628;2023-03-01T03:43:43;10.77;;;8.18;;
3369;SDS011;42042;51.948;7.628;2023-03-01T03:46:10;9.02;;;7.47;;
3369;SDS011;42042;51.948;7.628;2023-03-01T03:48:38;9.77;;;7.82;;
3369;SDS011;42042;51.948;7.628;2023-03-01T03:51:06;10.23;;;7.10;;
3369;SDS011;42042;51.948;7.628;2023-03-01T03:53:35;10.57;;;7.88;;
3369;SDS011;42042;51.948;7.628;2023-03-01T03:56:02;13.15;;;8.23;;
3369;SDS011;42042;51.948;7.628;2023-03-01T03:58:29;10.23;;;8.52;;
3369;SDS011;42042;51.948;7.628;2023-03-01T04:00:57;10.13;;;7.75;;
3369;SDS011;42042;51.948;7.628;2023-03-01T04:03:26;11.45;;;9.00;;
3369;SDS011;42042;51.948;7.628;2023-03-01T04:05:54;12.25;;;8.88;;
3369;SDS011;42042;51.948;7.628;2023-03-01T04:08:21;10.88;;;8.00;;
3369;SDS011;42042;51.948;7.628;2023-03-01T04:10:51;11.93;;;7.50;;
3369;SDS011;42042;51.948;7.628;2023-03-01T04:13:20;9.50;;;8.35;;
3369;SDS011;42042;51.948;7.628;2023-03-01T04:15:48;11.88;;;8.35;;
3369;SDS011;42042;51.948;7.628;2023-03-01T04:18:15;11.73;;;10.50;;
3369;SDS011;42042;51.948;7.628;2023-03-01T04:20:43;10.23;;;8.30;;
3369;SDS011;42042;51.948;7.628;2023-03-01T04:23:12;17.77;;;8.18;;
3369;SDS011;42042;51.948;7.628;2023-03-01T04:25:41;10.75;;;9.02;;
3369;SDS011;42042;51.948;7.628;2023-03-01T04:28:10;10.38;;;8.48;;
3369;SDS011;42042;51.948;7.628;2023-03-01T04:30:38;9.02;;;8.10;;
3369;SDS011;42042;51.948;7.628;2023-03-01T04:33:06;14.70;;;9.60;;
3369;SDS011;42042;51.948;7.628;2023-03-01T04:35:34;9.98;;;8.50;;
3369;SDS011;42042;51.948;7.628;2023-03-01T04:38:02;10.95;;;8.35;;
3369;SDS011;42042;51.948;7.628;2023-03-01T04:40:29;10.70;;;8.68;;
3369;SDS011;42042;51.948;7.628;2023-03-01T04:42:56;10.43;;;9.27;;
3369;SDS011;42042;51.948;7.628;2023-03-01T04:45:25;14.60;;;8.80;;
3369;SDS011;42042;51.948;7.628;2023-03-01T04:47:52;17.42;;;9.38;;
3369;SDS011;42042;51.948;7.628;2023-03-01T04:50:23;11.55;;;9.88;;
3369;SDS011;42042;51.948;7.628;2023-03-01T04:52:50;13.18;;;8.48;;
3369;SDS011;42042;51.948;7.628;2023-03-01T04:55:18;11.50;;;8.60;;
3369;SDS011;42042;51.948;7.628;2023-03-01T04:57:45;13.48;;;9.13;;
3369;SDS011;42042;51.948;7.628;2023-03-01T05:00:15;10.40;;;8.80;;
3369;SDS011;42042;51.948;7.628;2023-03-01T05:02:50;8.90;;;8.00;;
3369;SDS011;42042;51.948;7.628;2023-03-01T05:05:23;12.30;;;8.90;;
3369;SDS011;42042;51.948;7.628;2023-03-01T05:07:51;12.45;;;8.40;;
3369;SDS011;42042;51.948;7.628;2023-03-01T05:10:18;10.60;;;8.07;;
3369;SDS011;42042;51.948;7.628;2023-03-01T05:12:45;12.32;;;9.20;;
3369;SDS011;42042;51.948;7.628;2023-03-01T05:15:13;10.82;;;9.50;;
3369;SDS011;42042;51.948;7.628;2023-03-01T05:17:40;10.38;;;8.27;;
3369;SDS011;42042;51.948;7.628;2023-03-01T05:20:09;11.77;;;10.20;;
3369;SDS011;42042;51.948;7.628;2023-03-01T05:22:37;12.30;;;9.27;;
3369;SDS011;42042;51.948;7.628;2023-03-01T05:25:04;13.75;;;8.70;;
3369;SDS011;42042;51.948;7.628;2023-03-01T05:27:33;11.60;;;8.80;;
3369;SDS011;42042;51.948;7.628;2023-03-01T05:30:00;12.57;;;8.40;;
3369;SDS011;42042;51.948;7.628;2023-03-01T05:32:38;12.02;;;9.43;;
3369;SDS011;42042;51.948;7.628;2023-03-01T05:35:06;18.15;;;9.70;;
3369;SDS011;42042;51.948;7.628;2023-03-01T05:37:34;13.15;;;9.43;;
3369;SDS011;42042;51.948;7.628;2023-03-01T05:40:02;12.38;;;8.60;;
3369;SDS011;42042;51.948;7.628;2023-03-01T05:42:30;13.90;;;10.07;;
3369;SDS011;42042;51.948;7.628;2023-03-01T05:44:57;10.75;;;9.00;;
3369;SDS011;42042;51.948;7.628;2023-03-01T05:47:24;12.85;;;9.07;;
3369;SDS011;42042;51.948;7.628;2023-03-01T05:49:52;10.55;;;8.23;;
3369;SDS011;42042;51.948;7.628;2023-03-01T05:52:19;11.32;;;10.00;;
3369;SDS011;42042;51.948;7.628;2023-03-01T05:54:47;14.73;;;9.40;;
3369;SDS011;42042;51.948;7.628;2023-03-01T05:57:15;14.50;;;9.77;;
3369;SDS011;42042;51.948;7.628;2023-03-01T05:59:42;12.05;;;9.13;;
3369;SDS011;42042;51.948;7.628;2023-03-01T06:02:09;10.73;;;9.38;;
3369;SDS011;42042;51.948;7.628;2023-03-01T06:04:36;14.60;;;10.23;;
3369;SDS011;42042;51.948;7.628;2023-03-01T06:07:03;12.68;;;9.82;;
3369;SDS011;42042;51.948;7.628;2023-03-01T06:09:30;10.15;;;9.15;;
3369;SDS011;42042;51.948;7.628;2023-03-01T06:11:59;17.05;;;9.85;;
3369;SDS011;42042;51.948;7.628;2023-03-01T06:14:26;12.48;;;9.45;;
3369;SDS011;42042;51.948;7.628;2023-03-01T06:16:53;11.63;;;9.80;;
3369;SDS011;42042;51.948;7.628;2023-03-01T06:19:22;14.63;;;9.95;;
3369;SDS011;42042;51.948;7.628;2023-03-01T06:21:49;13.10;;;9.43;;
3369;SDS011;42042;51.948;7.628;2023-03-01T06:24:16;13.23;;;9.70;;
3369;SDS011;42042;51.948;7.628;2023-03-01T06:26:43;12.30;;;9.13;;
3369;SDS011;42042;51.948;7.628;2023-03-01T06:29:12;14.13;;;9.48;;
3369;SDS011;42042;51.948;7.628;2023-03-01T06:31:39;12.85;;;9.88;;
3369;SDS011;42042;51.948;7.628;2023-03-01T06:34:06;11.13;;;9.45;;
3369;SDS011;42042;51.948;7.628;2023-03-01T06:36:35;13.13;;;10.38;;
3369;SDS011;42042;51.948;7.628;2023-03-01T06:39:03;14.43;;;10.00;;
3369;SDS011;42042;51.948;7.628;2023-03-01T06:41:30;15.35;;;10.40;;
3369;SDS011;42042;51.948;7.628;2023-03-01T06:43:57;20.20;;;10.55;;
3369;SDS011;42042;51.948;7.628;2023-03-01T06:46:26;13.68;;;9.95;;
3369;SDS011;42042;51.948;7.628;2023-03-01T06:48:53;15.63;;;9.80;;
3369;SDS011;42042;51.948;7.628;2023-03-01T06:51:20;17.08;;;9.32;;
3369;SDS011;42042;51.948;7.628;2023-03-01T06:53:47;16.85;;;10.70;;
3369;SDS011;42042;51.948;7.628;2023-03-01T06:56:15;13.05;;;9.85;;
3369;SDS011;42042;51.948;7.628;2023-03-01T06:58:42;16.48;;;10.38;;
3369;SDS011;42042;51.948;7.628;2023-03-01T07:01:09;14.32;;;9.95;;
3369;SDS011;42042;51.948;7.628;2023-03-01T07:03:37;11.77;;;9.75;;
3369;SDS011;42042;51.948;7.628;2023-03-01T07:06:05;17.33;;;9.20;;
3369;SDS011;42042;51.948;7.628;2023-03-01T07:08:32;15.27;;;10.38;;
3369;SDS011;42042;51.948;7.628;2023-03-01T07:10:59;13.30;;;9.55;;
3369;SDS011;42042;51.948;7.628;2023-03-01T07:13:28;16.50;;;10.32;;
3369;SDS011;42042;51.948;7.628;2023-03-01T07:15:56;11.45;;;8.60;;
3369;SDS011;42042;51.948;7.628;2023-03-01T07:18:23;10.10;;;8.68;;
3369;SDS011;42042;51.948;7.628;2023-03-01T07:20:51;12.88;;;9.00;;
3369;SDS011;42042;51.948;7.628;2023-03-01T07:23:19;10.60;;;7.88;;
3369;SDS011;42042;51.948;7.628;2023-03-01T07:25:50;13.43;;;8.45;;
3369;SDS011;42042;51.948;7.628;2023-03-01T07:28:17;11.27;;;8.90;;
3369;SDS011;42042;51.948;7.628;2023-03-01T07:30:45;9.07;;;7.38;;
3369;SDS011;42042;51.948;7.628;2023-03-01T07:33:12;9.20;;;7.10;;
3369;SDS011;42042;51.948;7.628;2023-03-01T07:35:39;8.82;;;7.80;;
3369;SDS011;42042;51.948;7.628;2023-03-01T07:38:08;10.95;;;8.52;;
3369;SDS011;42042;51.948;7.628;2023-03-01T07:40:35;13.63;;;8.70;;
3369;SDS011;42042;51.948;7.628;2023-03-01T07:43:02;11.25;;;7.45;;
3369;SDS011;42042;51.948;7.628;2023-03-01T07:45:29;10.73;;;8.40;;
3369;SDS011;42042;51.948;7.628;2023-03-01T07:47:56;8.75;;;7.75;;
3369;SDS011;42042;51.948;7.628;2023-03-01T07:50:24;13.98;;;8.05;;
3369;SDS011;42042;51.948;7.628;2023-03-01T07:52:51;16.38;;;8.05;;
3369;SDS011;42042;51.948;7.628;2023-03-01T07:55:19;15.63;;;9.05;;
3369;SDS011;42042;51.948;7.628;2023-03-01T07:57:46;13.75;;;7.95;;
3369;SDS011;42042;51.948;7.628;2023-03-01T08:00:14;10.95;;;7.82;;
3369;SDS011;42042;51.948;7.628;2023-03-01T08:02:41;10.43;;;9.40;;
3369;SDS011;42042;51.948;7.628;2023-03-01T08:05:08;9.63;;;7.20;;
3369;SDS011;42042;51.948;7.628;2023-03-01T08:07:36;12.93;;;7.38;;
3369;SDS011;42042;51.948;7.628;2023-03-01T08:10:03;11.30;;;7.28;;
3369;SDS011;42042;51.948;7.628;2023-03-01T08:12:32;9.65;;;7.50;;
3369;SDS011;42042;51.948;7.628;2023-03-01T08:14:59;9.80;;;7.95;;
3369;SDS011;42042;51.948;7.628;2023-03-01T08:17:26;13.60;;;7.55;;
3369;SDS011;42042;51.948;7.628;2023-03-01T08:19:53;10.45;;;7.70;;
3369;SDS011;42042;51.948;7.628;2023-03-01T08:22:21;14.50;;;8.52;;
3369;SDS011;42042;51.948;7.628;2023-03-01T08:24:48;18.90;;;9.07;;
3369;SDS011;42042;51.948;7.628;2023-03-01T08:27:15;8.93;;;7.57;;
3369;SDS011;42042;51.948;7.628;2023-03-01T08:29:44;9.13;;;7.72;;
3369;SDS011;42042;51.948;7.628;2023-03-01T08:32:11;10.75;;;8.15;;
3369;SDS011;42042;51.948;7.628;2023-03-01T08:34:38;8.05;;;6.75;;
3369;SDS011;42042;51.948;7.628;2023-03-01T08:37:06;9.10;;;7.10;;
3369;SDS011;42042;51.948;7.628;2023-03-01T08:39:33;10.00;;;7.70;;
3369;SDS011;42042;51.948;7.628;2023-03-01T08:42:00;10.80;;;7.47;;
3369;SDS011;42042;51.948;7.628;2023-03-01T08:44:28;10.48;;;8.23;;
3369;SDS011;42042;51.948;7.628;2023-03-01T08:46:56;10.65;;;7.07;;
3369;SDS011;42042;51.948;7.628;2023-03-01T08:49:23;17.13;;;9.07;;
3369;SDS011;42042;51.948;7.628;2023-03-01T08:51:51;9.85;;;7.22;;
3369;SDS011;42042;51.948;7.628;2023-03-01T08:54:20;12.45;;;8.88;;
3369;SDS011;42042;51.948;7.628;2023-03-01T08:56:47;10.25;;;7.85;;
3369;SDS011;42042;51.948;7.628;2023-03-01T08:59:15;8.05;;;6.32;;
3369;SDS011;42042;51.948;7.628;2023-03-01T09:01:43;10.63;;;8.30;;
3369;SDS011;42042;51.948;7.628;2023-03-01T09:04:12;11.57;;;9.02;;
3369;SDS011;42042;51.948;7.628;2023-03-01T09:06:39;9.73;;;8.43;;
3369;SDS011;42042;51.948;7.628;2023-03-01T09:09:10;14.75;;;9.65;;
3369;SDS011;42042;51.948;7.628;2023-03-01T09:11:39;11.32;;;7.75;;
3369;SDS011;42042;51.948;7.628;2023-03-01T09:14:07;12.60;;;8.88;;
3369;SDS011;42042;51.948;7.628;2023-03-01T09:16:34;11.38;;;7.80;;
3369;SDS011;42042;51.948;7.628;2023-03-01T09:19:01;11.52;;;8.27;;
3369;SDS011;42042;51.948;7.628;2023-03-01T09:21:30;12.02;;;8.65;;
3369;SDS011;42042;51.948;7.628;2023-03-01T09:23:57;9.73;;;7.97;;
3369;SDS011;42042;51.948;7.628;2023-03-01T09:26:25;13.18;;;8.25;;
3369;SDS011;42042;51.948;7.628;2023-03-01T09:28:53;9.95;;;8.45;;
3369;SDS011;42042;51.948;7.628;2023-03-01T09:31:22;13.95;;;8.27;;
3369;SDS011;42042;51.948;7.628;2023-03-01T09:33:50;10.50;;;7.95;;
3369;SDS011;42042;51.948;7.628;2023-03-01T09:36:18;9.48;;;6.60;;
3369;SDS011;42042;51.948;7.628;2023-03-01T09:38:48;10.95;;;7.88;;
3369;SDS011;42042;51.948;7.628;2023-03-01T09:41:19;12.18;;;7.55;;
3369;SDS011;42042;51.948;7.628;2023-03-01T09:43:51;8.60;;;6.65;;
3369;SDS011;42042;51.948;7.628;2023-03-01T09:46:20;9.75;;;7.35;;
3369;SDS011;42042;51.948;7.628;2023-03-01T09:48:48;8.80;;;7.03;;
3369;SDS011;42042;51.948;7.628;2023-03-01T09:51:19;11.15;;;8.23;;
3369;SDS011;42042;51.948;7.628;2023-03-01T09:53:49;11.35;;;8.85;;
3369;SDS011;42042;51.948;7.628;2023-03-01T09:56:19;12.90;;;7.93;;
3369;SDS011;42042;51.948;7.628;2023-03-01T09:58:48;10.40;;;7.05;;
3369;SDS011;42042;51.948;7.628;2023-03-01T10:01:28;7.47;;;6.57;;
3369;SDS011;42042;51.948;7.628;2023-03-01T10:04:04;11.20;;;7.55;;
3369;SDS011;42042;51.948;7.628;2023-03-01T10:06:33;11.32;;;9.32;;
3369;SDS011;42042;51.948;7.628;2023-03-01T10:09:02;9.40;;;7.65;;
3369;SDS011;42042;51.948;7.628;2023-03-01T10:11:32;10.30;;;8.10;;
3369;SDS011;42042;51.948;7.628;2023-03-01T10:14:03;14.88;;;9.15;;
3369;SDS011;42042;51.948;7.628;2023-03-01T10:16:34;13.80;;;8.70;;
3369;SDS011;42042;51.948;7.628;2023-03-01T10:19:04;13.77;;;8.80;;
3369;SDS011;42042;51.948;7.628;2023-03-01T10:21:32;11.70;;;8.55;;
3369;SDS011;42042;51.948;7.628;2023-03-01T10:24:10;10.98;;;8.60;;
3369;SDS011;42042;51.948;7.628;2023-03-01T10:26:44;10.27;;;8.15;;
3369;SDS011;42042;51.948;7.628;2023-03-01T10:29:11;12.23;;;8.52;;
3369;SDS011;42042;51.948;7.628;2023-03-01T10:31:40;11.63;;;8.43;;
3369;SDS011;42042;51.948;7.628;2023-03-01T10:34:13;12.18;;;7.97;;
3369;SDS011;42042;51.948;7.628;2023-03-01T10:36:40;10.30;;;7.70;;
3369;SDS011;42042;51.948;7.628;2023-03-01T10:39:14;13.70;;;9.57;;
3369;SDS011;42042;51.948;7.628;2023-03-01T10:41:52;11.85;;;9.20;;
3369;SDS011;42042;51.948;7.628;2023-03-01T10:44:34;13.77;;;8.75;;
3369;SDS011;42042;51.948;7.628;2023-03-01T10:47:02;8.90;;;7.28;;
3369;SDS011;42042;51.948;7.628;2023-03-01T10:49:29;14.77;;;9.20;;
3369;SDS011;42042;51.948;7.628;2023-03-01T10:51:56;12.82;;;8.77;;
3369;SDS011;42042;51.948;7.628;2023-03-01T10:54:39;12.10;;;9.63;;
3369;SDS011;42042;51.948;7.628;2023-03-01T10:57:09;11.70;;;9.88;;
3369;SDS011;42042;51.948;7.628;2023-03-01T11:00:00;14.35;;;9.10;;
3369;SDS011;42042;51.948;7.628;2023-03-01T11:02:28;12.10;;;9.32;;
3369;SDS011;42042;51.948;7.628;2023-03-01T11:04:58;11.52;;;9.25;;
3369;SDS011;42042;51.948;7.628;2023-03-01T11:07:26;11.20;;;8.23;;
3369;SDS011;42042;51.948;7.628;2023-03-01T11:09:55;11.50;;;8.38;;
3369;SDS011;42042;51.948;7.628;2023-03-01T11:12:22;13.93;;;9.65;;
3369;SDS011;42042;51.948;7.628;2023-03-01T11:14:50;15.00;;;8.85;;
3369;SDS011;42042;51.948;7.628;2023-03-01T11:17:19;13.38;;;10.13;;
3369;SDS011;42042;51.948;7.628;2023-03-01T11:19:59;12.68;;;9.25;;
3369;SDS011;42042;51.948;7.628;2023-03-01T11:22:27;13.80;;;10.90;;
3369;SDS011;42042;51.948;7.628;2023-03-01T11:24:56;14.70;;;11.20;;
3369;SDS011;42042;51.948;7.628;2023-03-01T11:27:24;14.70;;;10.35;;
3369;SDS011;42042;51.948;7.628;2023-03-01T11:29:53;12.57;;;9.95;;
3369;SDS011;42042;51.948;7.628;2023-03-01T11:32:23;12.27;;;9.80;;
3369;SDS011;42042;51.948;7.628;2023-03-01T11:34:54;10.15;;;8.73;;
3369;SDS011;42042;51.948;7.628;2023-03-01T11:37:26;10.32;;;7.55;;
3369;SDS011;42042;51.948;7.628;2023-03-01T11:40:00;13.63;;;8.38;;
3369;SDS011;42042;51.948;7.628;2023-03-01T11:42:34;9.65;;;8.38;;
3369;SDS011;42042;51.948;7.628;2023-03-01T11:45:06;11.07;;;8.38;;
3369;SDS011;42042;51.948;7.628;2023-03-01T11:47:39;13.95;;;10.63;;
3369;SDS011;42042;51.948;7.628;2023-03-01T11:50:15;11.18;;;8.25;;
3369;SDS011;42042;51.948;7.628;2023-03-01T11:52:48;13.43;;;8.35;;
3369;SDS011;42042;51.948;7.628;2023-03-01T11:55:25;9.07;;;7.95;;
3369;SDS011;42042;51.948;7.628;2023-03-01T11:57:59;10.63;;;8.00;;
3369;SDS011;42042;51.948;7.628;2023-03-01T12:00:32;11.73;;;9.13;;
3369;SDS011;42042;51.948;7.628;2023-03-01T12:03:15;10.52;;;7.60;;
3369;SDS011;42042;51.948;7.628;2023-03-01T12:08:33;14.32;;;7.50;;
3369;SDS011;42042;51.948;7.628;2023-03-01T12:11:06;10.02;;;8.18;;
3369;SDS011;42042;51.948;7.628;2023-03-01T12:13:57;11.43;;;8.50;;
3369;SDS011;42042;51.948;7.628;2023-03-01T12:16:29;12.38;;;8.18;;
3369;SDS011;42042;51.948;7.628;2023-03-01T12:21:55;11.30;;;7.32;;
3369;SDS011;42042;51.948;7.628;2023-03-01T12:27:21;10.13;;;7.88;;
3369;SDS011;42042;51.948;7.628;2023-03-01T12:29:51;10.05;;;8.57;;
3369;SDS011;42042;51.948;7.628;2023-03-01T12:32:27;10.23;;;7.70;;
3369;SDS011;42042;51.948;7.628;2023-03-01T12:37:42;7.57;;;6.72;;
3369;SDS011;42042;51.948;7.628;2023-03-01T12:40:27;11.90;;;8.02;;
3369;SDS011;42042;51.948;7.628;2023-03-01T12:43:01;15.90;;;11.32;;
3369;SDS011;42042;51.948;7.628;2023-03-01T12:45:34;17.33;;;9.30;;
3369;SDS011;42042;51.948;7.628;2023-03-01T12:48:14;11.65;;;7.93;;
3369;SDS011;42042;51.948;7.628;2023-03-01T12:50:49;9.93;;;7.10;;
3369;SDS011;42042;51.948;7.628;2023-03-01T12:53:21;10.20;;;7.93;;
3369;SDS011;42042;51.948;7.628;2023-03-01T12:55:49;13.73;;;8.32;;
3369;SDS011;42042;51.948;7.628;2023-03-01T12:58:20;9.75;;;7.82;;
3369;SDS011;42042;51.948;7.628;2023-03-01T13:00:53;11.13;;;8.38;;
3369;SDS011;42042;51.948;7.628;2023-03-01T13:03:25;8.75;;;7.47;;
3369;SDS011;42042;51.948;7.628;2023-03-01T13:06:00;8.25;;;7.18;;
3369;SDS011;42042;51.948;7.628;2023-03-01T13:08:31;10.93;;;5.78;;
3369;SDS011;42042;51.948;7.628;2023-03-01T13:13:34;7.20;;;5.90;;
3369;SDS011;42042;51.948;7.628;2023-03-01T13:18:43;8.82;;;6.32;;
3369;SDS011;42042;51.948;7.628;2023-03-01T13:21:11;7.22;;;6.10;;
3369;SDS011;42042;51.948;7.628;2023-03-01T13:23:38;7.03;;;5.93;;
3369;SDS011;42042;51.948;7.628;2023-03-01T13:26:07;7.65;;;6.55;;
3369;SDS011;42042;51.948;7.628;2023-03-01T13:28:54;7.68;;;6.50;;
3369;SDS011;42042;51.948;7.628;2023-03-01T13:34:46;9.77;;;6.55;;
3369;SDS011;42042;51.948;7.628;2023-03-01T13:37:22;11.85;;;6.03;;
3369;SDS011;42042;51.948;7.628;2023-03-01T13:39:51;8.13;;;6.63;;
3369;SDS011;42042;51.948;7.628;2023-03-01T13:42:35;12.70;;;6.15;;
3369;SDS011;42042;51.948;7.628;2023-03-01T13:45:12;9.35;;;6.65;;
3369;SDS011;42042;51.948;7.628;2023-03-01T13:47:41;8.82;;;7.05;;
3369;SDS011;42042;51.948;7.628;2023-03-01T13:50:15;7.28;;;6.22;;
3369;SDS011;42042;51.948;7.628;2023-03-01T13:52:43;9.65;;;6.40;;
3369;SDS011;42042;51.948;7.628;2023-03-01T13:55:16;7.47;;;6.50;;
3369;SDS011;42042;51.948;7.628;2023-03-01T13:57:44;7.78;;;5.90;;
3369;SDS011;42042;51.948;7.628;2023-03-01T14:00:26;9.50;;;6.63;;
3369;SDS011;42042;51.948;7.628;2023-03-01T14:03:00;10.60;;;7.20;;
3369;SDS011;42042;51.948;7.628;2023-03-01T14:05:28;9.18;;;6.80;;
3369;SDS011;42042;51.948;7.628;2023-03-01T14:07:56;7.40;;;6.55;;
3369;SDS011;42042;51.948;7.628;2023-03-01T14:10:23;8.88;;;6.85;;
3369;SDS011;42042;51.948;7.628;2023-03-01T14:12:53;9.82;;;6.82;;
3369;SDS011;42042;51.948;7.628;2023-03-01T14:15:22;10.32;;;7.47;;
3369;SDS011;42042;51.948;7.628;2023-03-01T14:17:56;24.05;;;6.60;;
3369;SDS011;42042;51.948;7.628;2023-03-01T14:20:26;7.00;;;6.30;;
3369;SDS011;42042;51.948;7.628;2023-03-01T14:22:54;9.40;;;7.00;;
3369;SDS011;42042;51.948;7.628;2023-03-01T14:25:23;8.25;;;6.82;;
3369;SDS011;42042;51.948;7.628;2023-03-01T14:27:51;7.13;;;6.43;;
3369;SDS011;42042;51.948;7.628;2023-03-01T14:30:20;8.90;;;7.40;;
3369;SDS011;42042;51.948;7.628;2023-03-01T14:32:52;11.05;;;7.38;;
3369;SDS011;42042;51.948;7.628;2023-03-01T14:35:21;8.75;;;6.60;;
3369;SDS011;42042;51.948;7.628;2023-03-01T14:37:48;7.00;;;6.30;;
3369;SDS011;42042;51.948;7.628;2023-03-01T14:40:23;7.88;;;6.50;;
3369;SDS011;42042;51.948;7.628;2023-03-01T14:42:50;9.73;;;6.65;;
3369;SDS011;42042;51.948;7.628;2023-03-01T14:45:18;9.98;;;6.50;;
3369;SDS011;42042;51.948;7.628;2023-03-01T14:47:46;7.88;;;7.07;;
3369;SDS011;42042;51.948;7.628;2023-03-01T14:50:17;10.18;;;6.88;;
3369;SDS011;42042;51.948;7.628;2023-03-01T14:52:48;8.60;;;6.10;;
3369;SDS011;42042;51.948;7.628;2023-03-01T14:55:18;9.88;;;6.22;;
3369;SDS011;42042;51.948;7.628;2023-03-01T14:57:46;8.73;;;6.75;;
3369;SDS011;42042;51.948;7.628;2023-03-01T15:00:16;5.90;;;5.20;;
3369;SDS011;42042;51.948;7.628;2023-03-01T15:02:44;6.78;;;5.35;;
3369;SDS011;42042;51.948;7.628;2023-03-01T15:05:13;7.47;;;5.40;;
3369;SDS011;42042;51.948;7.628;2023-03-01T15:07:41;7.27;;;5.60;;
3369;SDS011;42042;51.948;7.628;2023-03-01T15:10:17;11.15;;;5.80;;
3369;SDS011;42042;51.948;7.628;2023-03-01T15:12:46;6.22;;;5.10;;
3369;SDS011;42042;51.948;7.628;2023-03-01T15:18:06;7.18;;;4.90;;
3369;SDS011;42042;51.948;7.628;2023-03-01T15:20:40;6.60;;;5.55;;
3369;SDS011;42042;51.948;7.628;2023-03-01T15:23:12;6.05;;;5.53;;
3369;SDS011;42042;51.948;7.628;2023-03-01T15:25:44;9.75;;;6.28;;